Time;durP1;ratioP1;P1;durP2;ratioP2;P2;SDS_P1;SDS_P2;PMS_P1;PMS_P2;Temp;Humidity;BMP_temperature;BMP_pressure;BME280_temperature;BME280_humidity;BME280_pressure;Samples;Min_cycle;Max_cycle;Signal;HPM_P1;HPM_P2
2023/04/24 00:00:12;;;;;;;4.03;3.63;;;12.30;99.90;;;;;;4982015;28;20055;-82
2023/04/24 00:02:39;;;;;;;3.95;3.65;;;9.90;99.90;;;;;;4966125;28;20047;-80
2023/04/24 00:05:06;;;;;;;3.35;3.10;;;12.00;99.90;;;;;;4928648;28;20050;-81
2023/04/24 00:07:32;;;;;;;3.80;3.50;;;10.90;99.90;;;;;;4966431;28;20102;-81
2023/04/24 00:09:57;;;;;;;3.22;2.92;;;12.80;99.90;;;;;;4973970;28;20051;-81
2023/04/24 00:12:24;;;;;;;4.63;3.30;;;12.40;99.90;;;;;;4958939;28;20051;-82
2023/04/24 00:14:49;;;;;;;3.28;2.90;;;12.70;99.90;;;;;;4947168;29;20051;-83
2023/04/24 00:17:15;;;;;;;3.85;3.42;;;11.00;99.90;;;;;;4942973;28;20569;-83
2023/04/24 00:19:41;;;;;;;3.70;3.47;;;11.00;99.90;;;;;;4968436;28;20060;-83
2023/04/24 00:22:07;;;;;;;4.18;2.70;;;10.90;99.90;;;;;;4962555;28;20047;-83
2023/04/24 00:24:32;;;;;;;3.13;2.63;;;11.00;99.90;;;;;;4958264;28;20090;-83
2023/04/24 00:26:59;;;;;;;3.97;3.15;;;11.00;99.90;;;;;;4941869;29;20567;-83
2023/04/24 00:29:24;;;;;;;2.40;2.30;;;12.00;99.90;;;;;;4928000;28;20074;-81
2023/04/24 00:31:50;;;;;;;2.90;2.70;;;12.80;99.90;;;;;;4961107;28;20522;-81
2023/04/24 00:34:16;;;;;;;2.70;2.50;;;10.90;99.90;;;;;;4959366;28;20126;-81
2023/04/24 00:36:42;;;;;;;2.95;2.70;;;10.90;99.90;;;;;;4957834;28;20365;-81
2023/04/24 00:39:10;;;;;;;2.42;2.33;;;11.20;99.90;;;;;;4941670;29;20051;-81
2023/04/24 00:41:36;;;;;;;2.85;2.65;;;12.30;99.90;;;;;;4965268;28;20047;-81
2023/04/24 00:44:02;;;;;;;3.70;2.88;;;10.90;99.90;;;;;;4958133;28;20483;-81
2023/04/24 00:46:28;;;;;;;2.67;2.38;;;10.90;99.90;;;;;;4947785;28;20067;-81
2023/04/24 00:48:55;;;;;;;1.75;1.65;;;10.90;99.90;;;;;;4964742;28;20065;-81
2023/04/24 00:51:21;;;;;;;2.17;1.27;;;10.90;99.90;;;;;;4964158;28;20051;-81
2023/04/24 00:53:47;;;;;;;2.47;0.77;;;11.20;99.90;;;;;;4963187;28;20187;-81
2023/04/24 00:56:13;;;;;;;1.75;0.60;;;10.80;99.90;;;;;;4967668;28;20057;-81
2023/04/24 00:58:39;;;;;;;1.08;0.47;;;10.80;99.90;;;;;;4962209;28;20447;-81
2023/04/24 01:01:06;;;;;;;1.08;0.40;;;13.30;99.90;;;;;;4962839;28;20059;-81
2023/04/24 01:03:33;;;;;;;0.70;0.55;;;12.00;99.90;;;;;;4963200;28;20078;-81
2023/04/24 01:05:59;;;;;;;0.30;0.30;;;11.00;99.90;;;;;;4976929;28;20113;-82
2023/04/24 01:08:28;;;;;;;0.30;0.30;;;11.00;99.90;;;;;;4930155;28;20043;-81
2023/04/24 01:10:54;;;;;;;0.35;0.30;;;10.60;99.90;;;;;;4976995;28;20049;-81
2023/04/24 01:13:20;;;;;;;0.43;0.40;;;11.60;99.90;;;;;;4962924;28;20675;-80
2023/04/24 01:15:47;;;;;;;0.30;0.30;;;11.30;99.90;;;;;;4960876;28;20071;-81
2023/04/24 01:18:13;;;;;;;1.00;0.30;;;12.50;99.90;;;;;;4966438;28;20043;-81
2023/04/24 01:20:44;;;;;;;1.75;0.40;;;11.30;99.90;;;;;;4945943;28;20053;-81
2023/04/24 01:23:10;;;;;;;0.30;0.30;;;12.00;99.90;;;;;;4960503;28;20082;-81
2023/04/24 01:25:37;;;;;;;1.30;0.25;;;10.40;99.90;;;;;;4960614;28;20047;-81
2023/04/24 01:28:03;;;;;;;1.30;0.50;;;10.40;99.90;;;;;;4962513;28;20062;-82
2023/04/24 01:30:29;;;;;;;1.65;0.38;;;12.30;99.90;;;;;;4965447;28;20410;-81
2023/04/24 01:32:55;;;;;;;0.40;0.40;;;8.80;99.90;;;;;;4964456;28;20065;-81
2023/04/24 01:35:21;;;;;;;0.47;0.40;;;10.30;99.90;;;;;;4964114;28;20518;-81
2023/04/24 01:37:47;;;;;;;2.25;0.50;;;12.40;99.90;;;;;;4963773;28;20051;-81
2023/04/24 01:40:13;;;;;;;0.82;0.40;;;12.40;99.90;;;;;;4962965;28;20458;-81
2023/04/24 01:42:41;;;;;;;0.77;0.40;;;11.50;99.90;;;;;;4988105;28;20071;-81
2023/04/24 01:45:11;;;;;;;0.38;0.38;;;12.10;99.90;;;;;;4945945;28;20519;-81
2023/04/24 01:47:37;;;;;;;0.88;0.70;;;10.30;99.90;;;;;;4945151;28;20043;-81
2023/04/24 01:50:04;;;;;;;0.57;0.57;;;11.40;99.90;;;;;;4961512;28;20055;-81
2023/04/24 01:52:33;;;;;;;0.68;0.68;;;10.20;99.90;;;;;;4959990;28;20072;-82
2023/04/24 01:55:04;;;;;;;1.50;0.80;;;10.20;99.90;;;;;;4964984;28;20507;-81
2023/04/24 01:57:31;;;;;;;0.90;0.90;;;11.30;99.90;;;;;;4961815;28;20043;-81
2023/04/24 01:59:57;;;;;;;0.90;0.90;;;12.60;99.90;;;;;;4949862;28;20120;-81
2023/04/24 02:02:27;;;;;;;1.05;1.05;;;12.10;99.90;;;;;;4954074;28;20501;-81
2023/04/24 02:04:55;;;;;;;1.33;1.20;;;12.40;99.90;;;;;;4960826;28;20483;-81
2023/04/24 02:07:21;;;;;;;1.20;1.10;;;10.20;99.90;;;;;;4944871;28;20058;-81
2023/04/24 02:09:47;;;;;;;2.78;1.92;;;10.20;99.90;;;;;;4965064;28;20043;-81
2023/04/24 02:12:13;;;;;;;1.98;1.88;;;10.20;99.90;;;;;;4978812;28;20596;-81
2023/04/24 02:14:39;;;;;;;1.80;1.70;;;12.40;99.90;;;;;;4944544;28;20058;-81
2023/04/24 02:17:04;;;;;;;2.25;2.15;;;12.20;99.90;;;;;;4961276;28;20055;-80
2023/04/24 02:19:30;;;;;;;4.03;2.20;;;10.20;99.90;;;;;;4962274;28;20055;-81
2023/04/24 02:21:56;;;;;;;2.60;2.38;;;10.10;99.90;;;;;;4964777;28;20125;-81
2023/04/24 02:24:22;;;;;;;2.60;2.40;;;10.20;99.90;;;;;;4963809;28;20051;-81
2023/04/24 02:26:48;;;;;;;2.15;2.05;;;12.00;99.90;;;;;;4959532;28;20110;-81
2023/04/24 02:29:14;;;;;;;2.53;2.42;;;12.30;99.90;;;;;;4959915;28;20499;-81
2023/04/24 02:31:40;;;;;;;2.65;2.55;;;11.20;99.90;;;;;;4946380;28;20051;-82
2023/04/24 02:34:05;;;;;;;3.42;3.22;;;12.50;99.90;;;;;;4962362;28;20054;-81
2023/04/24 02:36:31;;;;;;;3.50;3.30;;;10.20;99.90;;;;;;4977561;28;20498;-81
2023/04/24 02:38:57;;;;;;;3.40;3.20;;;10.10;99.90;;;;;;4961295;28;20061;-81
2023/04/24 02:41:22;;;;;;;3.72;3.53;;;10.10;99.90;;;;;;4961414;28;20514;-81
2023/04/24 02:43:48;;;;;;;3.60;3.40;;;10.10;99.90;;;;;;4961182;28;20047;-81
2023/04/24 02:46:14;;;;;;;3.97;3.78;;;12.00;99.90;;;;;;4942211;28;20148;-81
2023/04/24 02:48:40;;;;;;;5.63;4.30;;;9.90;99.90;;;;;;4974631;28;20050;-81
2023/04/24 02:51:06;;;;;;;4.68;4.07;;;10.10;99.90;;;;;;4948880;29;20455;-81
2023/04/24 02:53:32;;;;;;;5.22;4.72;;;10.10;99.90;;;;;;4966253;28;20066;-80
2023/04/24 02:55:57;;;;;;;6.68;5.22;;;10.00;99.90;;;;;;4947527;28;20047;-81
2023/04/24 02:58:23;;;;;;;5.63;5.20;;;10.00;99.90;;;;;;4977396;28;20085;-81
2023/04/24 03:00:52;;;;;;;5.20;4.80;;;10.00;99.90;;;;;;4960414;28;20138;-81
2023/04/24 03:03:18;;;;;;;5.50;5.10;;;12.30;99.90;;;;;;4946142;28;20125;-81
2023/04/24 03:05:44;;;;;;;5.80;5.38;;;9.70;99.90;;;;;;4957103;28;20134;-81
2023/04/24 03:08:10;;;;;;;6.45;6.05;;;11.70;99.90;;;;;;4952427;28;20485;-81
2023/04/24 03:10:35;;;;;;;6.15;5.28;;;11.80;99.90;;;;;;4959974;28;20055;-82
2023/04/24 03:13:01;;;;;;;7.05;6.40;;;11.70;99.90;;;;;;4958753;28;20083;-81
2023/04/24 03:15:27;;;;;;;6.60;6.03;;;10.10;99.90;;;;;;4959035;28;20082;-81
2023/04/24 03:17:53;;;;;;;7.03;6.45;;;9.90;99.90;;;;;;4980637;28;20051;-81
2023/04/24 03:20:18;;;;;;;7.13;6.55;;;12.30;99.90;;;;;;4926797;29;20522;-81
2023/04/24 03:22:44;;;;;;;7.30;6.72;;;10.20;99.90;;;;;;4960841;28;20055;-81
2023/04/24 03:25:10;;;;;;;7.03;6.53;;;11.10;99.90;;;;;;4963344;28;20129;-81
2023/04/24 03:27:37;;;;;;;7.45;6.82;;;11.20;99.90;;;;;;4959864;28;20055;-81
2023/04/24 03:30:03;;;;;;;7.45;6.90;;;12.00;99.90;;;;;;4959131;28;20055;-81
2023/04/24 03:32:29;;;;;;;8.13;7.38;;;10.10;99.90;;;;;;4943271;28;20655;-82
2023/04/24 03:34:55;;;;;;;8.70;7.90;;;10.50;99.90;;;;;;4953943;28;20125;-81
2023/04/24 03:37:20;;;;;;;8.02;7.35;;;10.10;99.90;;;;;;4969316;28;20431;-81
2023/04/24 03:39:46;;;;;;;8.57;7.82;;;11.90;99.90;;;;;;4958978;28;20110;-81
2023/04/24 03:42:12;;;;;;;8.57;7.82;;;12.20;99.90;;;;;;4958301;28;20404;-81
2023/04/24 03:44:37;;;;;;;9.32;8.32;;;10.60;99.90;;;;;;4943258;28;20081;-81
2023/04/24 03:47:04;;;;;;;9.23;7.68;;;10.30;99.90;;;;;;4945972;28;20570;-81
2023/04/24 03:49:30;;;;;;;8.40;7.70;;;10.10;99.90;;;;;;4944487;28;20134;-81
2023/04/24 03:51:55;;;;;;;9.63;8.85;;;9.80;99.90;;;;;;4941349;29;20142;-81
2023/04/24 03:54:21;;;;;;;10.15;8.00;;;9.90;99.90;;;;;;4961484;28;20049;-81
2023/04/24 03:56:49;;;;;;;7.85;7.15;;;11.80;99.90;;;;;;4958806;28;20471;-81
2023/04/24 03:59:18;;;;;;;7.10;6.57;;;10.10;99.90;;;;;;4962286;28;20086;-82
2023/04/24 04:01:46;;;;;;;9.60;8.70;;;10.10;99.90;;;;;;4956137;28;20172;-81
2023/04/24 04:04:12;;;;;;;8.23;7.53;;;10.50;99.90;;;;;;4962020;28;20094;-81
2023/04/24 04:06:38;;;;;;;9.30;8.48;;;10.40;99.90;;;;;;4942232;28;20376;-82
2023/04/24 04:09:03;;;;;;;8.43;7.72;;;12.10;99.90;;;;;;4969652;28;20046;-81
2023/04/24 04:11:30;;;;;;;7.38;6.75;;;10.00;99.90;;;;;;4943952;28;20074;-82
2023/04/24 04:13:56;;;;;;;9.07;6.90;;;10.00;99.90;;;;;;4959262;28;20047;-81
2023/04/24 04:16:22;;;;;;;7.22;6.60;;;10.60;99.90;;;;;;4957768;28;20435;-81
2023/04/24 04:18:48;;;;;;;7.25;6.43;;;10.00;99.90;;;;;;4962832;28;20050;-81
2023/04/24 04:21:14;;;;;;;5.95;5.45;;;10.00;99.90;;;;;;4957940;28;20526;-82
2023/04/24 04:23:42;;;;;;;6.00;5.55;;;10.00;99.90;;;;;;4959465;28;20083;-81
2023/04/24 04:26:07;;;;;;;6.63;5.97;;;10.10;99.90;;;;;;4962450;28;20050;-82
2023/04/24 04:28:34;;;;;;;5.70;5.30;;;10.90;99.90;;;;;;4963091;28;20047;-80
2023/04/24 04:31:00;;;;;;;6.00;5.43;;;10.00;99.90;;;;;;4948476;28;20062;-83
2023/04/24 04:33:26;;;;;;;7.57;6.90;;;11.40;99.90;;;;;;4944702;28;20543;-82
2023/04/24 04:35:52;;;;;;;6.40;5.03;;;11.60;99.90;;;;;;4958216;28;20048;-82
2023/04/24 04:38:19;;;;;;;5.75;5.25;;;11.30;99.90;;;;;;4957809;28;20055;-82
2023/04/24 04:40:45;;;;;;;6.13;5.63;;;10.40;99.90;;;;;;4960605;28;20071;-82
2023/04/24 04:43:13;;;;;;;5.75;5.35;;;9.90;99.90;;;;;;4960874;28;20157;-82
2023/04/24 04:45:40;;;;;;;6.05;5.57;;;11.90;99.90;;;;;;4961211;28;20055;-81
2023/04/24 04:48:07;;;;;;;5.90;5.40;;;9.90;99.90;;;;;;4958645;28;20050;-82
2023/04/24 04:50:33;;;;;;;4.68;3.80;;;9.90;99.90;;;;;;4970868;28;20582;-82
2023/04/24 04:52:59;;;;;;;3.97;3.67;;;10.30;99.90;;;;;;4981921;28;20047;-82
2023/04/24 04:55:25;;;;;;;3.25;3.00;;;11.90;99.90;;;;;;4960910;28;20059;-82
2023/04/24 04:57:51;;;;;;;2.95;2.75;;;9.90;99.90;;;;;;4960290;28;20883;-82
2023/04/24 05:00:16;;;;;;;2.97;2.78;;;11.80;99.90;;;;;;4961486;28;20125;-82
2023/04/24 05:02:42;;;;;;;3.22;2.05;;;9.90;99.90;;;;;;4943088;28;20065;-82
2023/04/24 05:05:08;;;;;;;2.55;1.55;;;11.20;99.90;;;;;;4956920;28;20055;-82
2023/04/24 05:07:34;;;;;;;1.63;1.48;;;10.00;99.90;;;;;;4959753;28;20062;-81
2023/04/24 05:10:00;;;;;;;1.30;1.20;;;10.60;99.90;;;;;;4957574;28;20385;-81
2023/04/24 05:12:26;;;;;;;2.40;0.55;;;10.80;99.90;;;;;;4957805;28;20128;-81
2023/04/24 05:14:52;;;;;;;0.77;0.77;;;10.00;99.90;;;;;;4927596;28;20053;-81
2023/04/24 05:17:18;;;;;;;0.70;0.70;;;12.00;99.90;;;;;;4944760;28;20133;-80
2023/04/24 05:19:44;;;;;;;0.50;0.50;;;10.00;99.90;;;;;;4951284;28;20059;-81
2023/04/24 05:22:11;;;;;;;0.77;0.40;;;11.40;99.90;;;;;;4925794;28;20054;-81
2023/04/24 05:24:37;;;;;;;1.15;0.88;;;10.00;99.90;;;;;;4925872;28;20043;-81
2023/04/24 05:27:04;;;;;;;0.60;0.60;;;12.00;99.90;;;;;;4948749;29;20122;-81
2023/04/24 05:29:31;;;;;;;1.02;0.90;;;10.00;99.90;;;;;;4956976;28;20082;-81
2023/04/24 05:31:57;;;;;;;0.85;0.73;;;11.70;99.90;;;;;;4961950;28;20059;-81
2023/04/24 05:34:23;;;;;;;2.63;0.60;;;12.20;99.90;;;;;;4947852;28;20418;-81
2023/04/24 05:36:50;;;;;;;1.13;1.00;;;10.00;99.90;;;;;;4961740;28;20483;-81
2023/04/24 05:39:17;;;;;;;2.00;0.52;;;10.00;99.90;;;;;;4966529;28;20067;-81
2023/04/24 05:41:43;;;;;;;0.73;0.63;;;10.30;99.90;;;;;;4966380;28;20109;-81
2023/04/24 05:44:09;;;;;;;1.05;0.60;;;10.50;99.90;;;;;;4940633;28;20051;-78
2023/04/24 05:46:35;;;;;;;2.03;0.80;;;10.00;99.90;;;;;;4952193;28;20253;-80
2023/04/24 05:49:01;;;;;;;1.13;1.10;;;12.20;99.90;;;;;;4964039;28;20050;-81
2023/04/24 05:51:27;;;;;;;0.80;0.80;;;12.00;99.90;;;;;;4962220;28;20363;-81
2023/04/24 05:53:53;;;;;;;2.40;1.17;;;11.70;99.90;;;;;;4617324;28;9999745;-79
2023/04/24 05:56:18;;;;;;;2.40;1.42;;;11.60;99.90;;;;;;4961649;28;20087;-80
2023/04/24 05:58:46;;;;;;;1.80;1.50;;;9.90;99.90;;;;;;4940493;28;20141;-80
2023/04/24 06:01:11;;;;;;;2.50;1.63;;;9.90;99.90;;;;;;4959952;28;20070;-79
2023/04/24 06:03:39;;;;;;;1.60;1.50;;;9.70;99.90;;;;;;4947746;28;20588;-80
2023/04/24 06:06:06;;;;;;;2.22;2.03;;;8.30;99.90;;;;;;4978273;28;20047;-79
2023/04/24 06:08:32;;;;;;;2.88;1.60;;;9.90;99.90;;;;;;4961185;28;20046;-80
2023/04/24 06:10:58;;;;;;;2.92;2.60;;;11.40;99.90;;;;;;4941906;28;20131;-80
2023/04/24 06:13:23;;;;;;;2.35;2.17;;;9.90;99.90;;;;;;4962572;28;20122;-80
2023/04/24 06:15:49;;;;;;;7.53;4.63;;;9.90;99.90;;;;;;4959499;28;20434;-80
2023/04/24 06:18:18;;;;;;;3.50;3.20;;;9.80;99.90;;;;;;4962603;28;20047;-79
2023/04/24 06:20:47;;;;;;;4.18;3.08;;;11.60;99.90;;;;;;4944242;28;20062;-80
2023/04/24 06:23:12;;;;;;;4.65;3.13;;;9.80;99.90;;;;;;4960880;28;20049;-80
2023/04/24 06:25:38;;;;;;;3.15;2.78;;;9.80;99.90;;;;;;4952674;28;20047;-81
2023/04/24 06:28:04;;;;;;;2.95;2.75;;;;;;;;;;4962239;28;20051;-81
2023/04/24 06:30:31;;;;;;;6.65;3.40;;;9.80;99.90;;;;;;4956134;28;20081;-80
2023/04/24 06:32:56;;;;;;;33.17;4.63;;;12.30;99.90;;;;;;4958522;28;20062;-82
2023/04/24 06:35:23;;;;;;;3.22;2.63;;;8.70;99.90;;;;;;4952555;28;20050;-85
2023/04/24 06:37:48;;;;;;;2.60;2.40;;;10.00;99.90;;;;;;4968086;28;20039;-83
2023/04/24 06:40:14;;;;;;;2.78;2.38;;;9.90;99.90;;;;;;4959206;28;20062;-82
2023/04/24 06:42:40;;;;;;;3.35;2.70;;;10.00;99.90;;;;;;4983966;28;20051;-82
2023/04/24 06:45:07;;;;;;;5.78;2.72;;;9.80;99.90;;;;;;4965640;28;20055;-82
2023/04/24 06:47:33;;;;;;;4.22;2.10;;;9.90;99.90;;;;;;4959162;28;20051;-82
2023/04/24 06:49:59;;;;;;;12.73;8.48;;;9.90;99.90;;;;;;4966137;28;20057;-82
2023/04/24 06:52:24;;;;;;;4.20;2.47;;;12.00;99.90;;;;;;4947120;28;20074;-82
2023/04/24 06:54:50;;;;;;;1.63;1.38;;;9.90;99.90;;;;;;4961712;28;20090;-82
2023/04/24 06:57:18;;;;;;;3.60;1.50;;;9.90;99.90;;;;;;4959545;28;20150;-82
2023/04/24 06:59:43;;;;;;;3.42;1.55;;;11.10;99.90;;;;;;4945305;28;20057;-81
2023/04/24 07:02:09;;;;;;;4.22;1.40;;;10.90;99.90;;;;;;4959327;28;20062;-81
2023/04/24 07:04:34;;;;;;;2.50;1.25;;;11.70;99.90;;;;;;4925008;28;20431;-82
2023/04/24 07:07:00;;;;;;;2.55;0.95;;;11.90;99.90;;;;;;4975315;28;20063;-82
2023/04/24 07:09:27;;;;;;;3.40;0.90;;;9.90;99.90;;;;;;4940604;29;20484;-82
2023/04/24 07:11:53;;;;;;;3.17;0.90;;;9.90;99.90;;;;;;4943385;28;20043;-82
2023/04/24 07:14:20;;;;;;;1.35;1.20;;;9.90;99.90;;;;;;4957895;28;20106;-82
2023/04/24 07:16:46;;;;;;;2.17;1.05;;;9.90;99.90;;;;;;4960235;28;20145;-84
2023/04/24 07:19:13;;;;;;;2.55;1.10;;;11.80;99.90;;;;;;4967128;28;20047;-84
2023/04/24 07:21:39;;;;;;;5.68;1.77;;;11.70;99.90;;;;;;4964402;28;20101;-84
2023/04/24 07:24:04;;;;;;;7.53;3.17;;;9.60;99.90;;;;;;4967083;28;20048;-83
2023/04/24 07:26:30;;;;;;;3.47;1.92;;;9.80;99.90;;;;;;4958775;28;20428;-83
2023/04/24 07:28:56;;;;;;;3.40;1.38;;;9.80;99.90;;;;;;4959963;28;20455;-83
2023/04/24 07:31:21;;;;;;;3.28;1.20;;;9.70;99.90;;;;;;4941128;29;20147;-83
2023/04/24 07:33:47;;;;;;;4.20;1.10;;;9.70;99.90;;;;;;4960872;28;20051;-83
2023/04/24 07:36:16;;;;;;;5.97;0.88;;;9.70;99.90;;;;;;4945418;28;20402;-84
2023/04/24 07:38:42;;;;;;;5.70;1.70;;;9.50;99.90;;;;;;4948643;28;20061;-83
2023/04/24 07:41:08;;;;;;;4.40;1.20;;;10.50;99.90;;;;;;4962856;28;20055;-83
2023/04/24 07:43:34;;;;;;;4.97;2.30;;;10.80;99.90;;;;;;4965391;28;20391;-82
2023/04/24 07:46:00;;;;;;;9.10;3.42;;;9.50;99.90;;;;;;4928392;28;20450;-83
2023/04/24 07:48:26;;;;;;;9.00;4.72;;;11.20;99.90;;;;;;4960649;28;20070;-83
2023/04/24 07:50:52;;;;;;;8.73;5.20;;;9.40;99.90;;;;;;4967948;28;20102;-84
2023/04/24 07:53:18;;;;;;;14.25;5.80;;;11.40;99.90;;;;;;4943169;28;20070;-83
2023/04/24 07:55:43;;;;;;;13.85;6.57;;;9.40;99.90;;;;;;4949572;28;20490;-84
2023/04/24 07:58:09;;;;;;;12.45;7.13;;;11.30;99.90;;;;;;4941940;28;20050;-84
2023/04/24 08:00:35;;;;;;;14.20;8.68;;;9.40;99.90;;;;;;4957604;28;20210;-84
2023/04/24 08:03:01;;;;;;;24.42;11.73;;;11.90;99.90;;;;;;4944180;28;20440;-84
2023/04/24 08:05:28;;;;;;;14.38;10.60;;;9.30;99.90;;;;;;4960406;28;20519;-84
2023/04/24 08:07:54;;;;;;;18.67;11.75;;;11.20;99.90;;;;;;4944800;28;20058;-84
2023/04/24 08:10:22;;;;;;;19.40;11.13;;;11.00;99.90;;;;;;4958914;28;20055;-82
2023/04/24 08:12:48;;;;;;;23.20;13.20;;;9.20;99.90;;;;;;4958369;28;20055;-84
2023/04/24 08:15:13;;;;;;;21.63;13.15;;;11.30;99.90;;;;;;4945556;28;20406;-83
2023/04/24 08:17:39;;;;;;;19.23;11.15;;;11.30;99.90;;;;;;4960744;28;20054;-84
2023/04/24 08:20:05;;;;;;;14.18;9.70;;;7.60;99.90;;;;;;4960438;28;20054;-84
2023/04/24 08:22:31;;;;;;;16.05;11.02;;;9.20;99.90;;;;;;4947533;28;20058;-83
2023/04/24 08:24:59;;;;;;;17.80;11.38;;;9.10;99.90;;;;;;4943019;28;20387;-83
2023/04/24 08:27:26;;;;;;;17.17;10.80;;;9.10;99.90;;;;;;4962691;28;20051;-83
2023/04/24 08:29:53;;;;;;;19.50;11.15;;;9.10;99.90;;;;;;4977105;28;20122;-83
2023/04/24 08:32:27;;;;;;;18.13;11.02;;;9.00;99.90;;;;;;4945218;28;20054;-83
2023/04/24 08:34:53;;;;;;;18.92;10.35;;;9.00;99.90;;;;;;4944621;28;20051;-84
2023/04/24 08:37:18;;;;;;;17.23;10.23;;;10.90;99.90;;;;;;4961547;28;20540;-83
2023/04/24 08:39:44;;;;;;;20.02;9.73;;;9.00;99.90;;;;;;4960345;28;20047;-85
2023/04/24 08:42:12;;;;;;;18.23;10.50;;;8.90;99.90;;;;;;4942232;28;20098;-84
2023/04/24 08:44:38;;;;;;;17.10;10.98;;;10.90;99.90;;;;;;4958787;28;20514;-84
2023/04/24 08:47:05;;;;;;;15.88;9.80;;;8.70;99.90;;;;;;4948663;28;20063;-83
2023/04/24 08:49:31;;;;;;;16.00;10.20;;;9.70;99.90;;;;;;4964029;28;20558;-84
2023/04/24 08:51:56;;;;;;;16.52;10.32;;;10.70;99.90;;;;;;4959792;28;20062;-84
2023/04/24 08:54:23;;;;;;;17.55;10.70;;;8.50;99.90;;;;;;4961061;28;20427;-84
2023/04/24 08:56:50;;;;;;;17.02;10.68;;;9.80;99.90;;;;;;4963025;28;20043;-83
2023/04/24 08:59:16;;;;;;;13.27;10.23;;;8.80;99.90;;;;;;4962349;28;20054;-83
2023/04/24 09:01:42;;;;;;;19.63;11.95;;;11.20;99.90;;;;;;4960202;28;20065;-83
2023/04/24 09:04:10;;;;;;;21.52;10.48;;;8.90;99.90;;;;;;4958288;28;20062;-84
2023/04/24 09:06:36;;;;;;;18.83;9.40;;;10.50;99.90;;;;;;4960151;28;20090;-84
2023/04/24 09:09:03;;;;;;;14.98;7.78;;;8.80;99.90;;;;;;4946407;28;20086;-84
2023/04/24 09:11:30;;;;;;;13.02;7.25;;;8.90;99.90;;;;;;4964554;28;20399;-83
2023/04/24 09:13:57;;;;;;;15.77;7.78;;;8.70;99.90;;;;;;4965422;28;20126;-83
2023/04/24 09:16:25;;;;;;;12.88;6.85;;;11.10;99.90;;;;;;4967949;28;20051;-84
2023/04/24 09:18:52;;;;;;;15.15;7.63;;;8.90;99.90;;;;;;4963271;28;20574;-84
2023/04/24 09:21:19;;;;;;;12.38;6.22;;;9.20;99.90;;;;;;4963391;28;20044;-85
2023/04/24 09:23:45;;;;;;;10.50;6.15;;;10.50;99.90;;;;;;4948287;28;20043;-84
2023/04/24 09:26:11;;;;;;;12.82;6.65;;;8.90;99.90;;;;;;4961915;28;20062;-84
2023/04/24 09:28:40;;;;;;;11.02;5.57;;;8.90;99.90;;;;;;4960109;28;20046;-84
2023/04/24 09:31:19;;;;;;;9.10;5.40;;;10.60;99.90;;;;;;4962364;28;20059;-84
2023/04/24 09:34:00;;;;;;;14.77;6.22;;;8.90;99.90;;;;;;4965651;28;20050;-84
2023/04/24 09:36:32;;;;;;;9.30;5.57;;;11.10;99.90;;;;;;4960137;28;20051;-85
2023/04/24 09:39:04;;;;;;;12.88;5.43;;;8.90;99.90;;;;;;4945276;28;20051;-84
2023/04/24 09:41:31;;;;;;;12.85;5.00;;;9.00;99.90;;;;;;4963951;28;20039;-84
2023/04/24 09:44:10;;;;;;;14.13;5.15;;;9.00;99.90;;;;;;4962858;28;20086;-83
2023/04/24 09:46:36;;;;;;;11.13;4.72;;;9.30;99.90;;;;;;4962077;28;20050;-84
2023/04/24 09:49:16;;;;;;;10.02;4.97;;;9.30;99.90;;;;;;4962310;28;20403;-84
2023/04/24 09:51:42;;;;;;;11.65;4.43;;;8.90;99.90;;;;;;4965011;28;20098;-83
2023/04/24 09:54:20;;;;;;;15.43;4.82;;;8.90;99.90;;;;;;4962331;28;20490;-84
2023/04/24 09:56:49;;;;;;;13.35;4.68;;;9.00;99.90;;;;;;4961604;28;20411;-84
2023/04/24 09:59:16;;;;;;;14.93;4.60;;;9.60;99.90;;;;;;4946269;28;20083;-84
2023/04/24 10:01:44;;;;;;;9.75;4.30;;;10.80;99.90;;;;;;4963664;28;20711;-84
2023/04/24 10:04:36;;;;;;;6.32;3.47;;;10.00;99.90;;;;;;4962957;28;20431;-84
2023/04/24 10:07:06;;;;;;;9.63;3.80;;;9.10;99.90;;;;;;4957907;28;20062;-83
2023/04/24 10:09:32;;;;;;;11.02;5.30;;;9.20;99.90;;;;;;4963608;28;20066;-83
2023/04/24 10:11:59;;;;;;;7.13;2.75;;;9.30;99.90;;;;;;4962569;28;20054;-85
2023/04/24 10:14:25;;;;;;;9.45;3.22;;;9.30;99.90;;;;;;4959832;28;20403;-84
2023/04/24 10:16:56;;;;;;;8.57;2.58;;;9.30;99.90;;;;;;4960853;28;20134;-84
2023/04/24 10:19:25;;;;;;;8.50;3.10;;;9.30;99.90;;;;;;4964648;28;20051;-83
2023/04/24 10:21:52;;;;;;;8.75;3.20;;;9.30;99.90;;;;;;4964033;28;20458;-85
2023/04/24 10:24:20;;;;;;;7.75;2.75;;;9.30;99.90;;;;;;4959954;28;20039;-83
2023/04/24 10:26:47;;;;;;;11.50;3.40;;;11.10;99.90;;;;;;4930806;29;20047;-84
2023/04/24 10:29:15;;;;;;;8.80;2.58;;;9.20;99.90;;;;;;4946790;28;20475;-84
2023/04/24 10:31:41;;;;;;;14.23;2.70;;;9.30;99.90;;;;;;4964618;28;20503;-84
2023/04/24 10:34:08;;;;;;;13.15;4.80;;;9.40;99.90;;;;;;4964532;28;20523;-83
2023/04/24 10:36:36;;;;;;;10.35;1.55;;;9.40;99.90;;;;;;4967184;28;20051;-84
2023/04/24 10:39:06;;;;;;;6.43;2.00;;;9.40;99.90;;;;;;4966230;28;20047;-84
2023/04/24 10:41:32;;;;;;;9.02;2.10;;;9.50;99.90;;;;;;4967441;28;20054;-84
2023/04/24 10:44:24;;;;;;;8.55;2.30;;;11.40;99.90;;;;;;4965140;28;20043;-83
2023/04/24 10:46:55;;;;;;;6.75;1.70;;;9.40;99.90;;;;;;4958594;28;20150;-83
2023/04/24 10:49:31;;;;;;;5.13;1.65;;;9.40;99.90;;;;;;4968331;28;20066;-83
2023/04/24 10:52:06;;;;;;;8.00;1.63;;;9.20;99.90;;;;;;4963799;28;20483;-83
2023/04/24 10:54:36;;;;;;;6.55;1.75;;;9.40;99.90;;;;;;4961381;28;20047;-84
2023/04/24 10:57:22;;;;;;;7.05;1.83;;;9.30;99.90;;;;;;4960330;28;20090;-84
2023/04/24 11:00:13;;;;;;;11.45;2.10;;;9.40;99.90;;;;;;4946667;28;20077;-84
2023/04/24 11:02:47;;;;;;;5.60;1.50;;;9.40;99.90;;;;;;4976322;28;20102;-84
2023/04/24 11:05:15;;;;;;;5.80;1.40;;;11.40;99.90;;;;;;4946318;28;20063;-85
2023/04/24 11:08:21;;;;;;;5.93;1.25;;;9.80;99.90;;;;;;4954533;28;20109;-84
2023/04/24 11:10:53;;;;;;;8.73;1.70;;;9.40;99.90;;;;;;4961931;28;20395;-84
2023/04/24 11:13:22;;;;;;;5.15;1.35;;;11.40;99.90;;;;;;4961919;28;20061;-85
2023/04/24 11:16:15;;;;;;;10.63;1.40;;;9.30;99.90;;;;;;4964024;28;20046;-84
2023/04/24 11:18:50;;;;;;;5.68;1.33;;;9.40;99.90;;;;;;4961633;28;20051;-85
2023/04/24 11:21:19;;;;;;;6.22;1.40;;;9.40;99.90;;;;;;4962814;28;20126;-85
2023/04/24 11:23:46;;;;;;;8.60;1.80;;;11.40;99.90;;;;;;4962863;28;20393;-84
2023/04/24 11:26:12;;;;;;;6.75;1.60;;;9.60;99.90;;;;;;4962359;28;20047;-84
2023/04/24 11:28:45;;;;;;;10.40;2.03;;;9.40;99.90;;;;;;4960966;28;20050;-85
2023/04/24 11:31:36;;;;;;;4.60;1.65;;;11.30;99.90;;;;;;4961086;28;20272;-84
2023/04/24 11:34:13;;;;;;;7.80;1.60;;;9.50;99.90;;;;;;4942488;29;20094;-84
2023/04/24 11:36:42;;;;;;;4.90;1.30;;;9.50;99.90;;;;;;4960232;28;20047;-85
2023/04/24 11:39:07;;;;;;;9.65;1.27;;;9.50;99.90;;;;;;4960228;28;20066;-85
2023/04/24 11:41:35;;;;;;;7.40;1.27;;;11.60;99.90;;;;;;4977416;28;20042;-83
2023/04/24 11:44:02;;;;;;;7.25;2.72;;;10.90;99.90;;;;;;4961998;28;20054;-85
2023/04/24 11:46:29;;;;;;;4.32;0.95;;;9.40;99.90;;;;;;4958864;28;20183;-84
2023/04/24 11:48:56;;;;;;;13.70;1.50;;;9.50;99.90;;;;;;4957676;28;20555;-83
2023/04/24 11:51:23;;;;;;;8.18;1.65;;;9.30;99.90;;;;;;4960789;28;20055;-83
2023/04/24 11:53:49;;;;;;;4.90;0.80;;;9.20;99.90;;;;;;4970403;28;20058;-82
2023/04/24 11:56:19;;;;;;;3.83;0.70;;;11.00;99.90;;;;;;4950326;28;20067;-85
2023/04/24 11:58:46;;;;;;;6.68;1.17;;;9.00;99.90;;;;;;4969679;28;20178;-87
2023/04/24 12:01:12;;;;;;;6.82;0.88;;;;;;;;;;4957446;28;20086;-88
2023/04/24 12:03:38;;;;;;;5.65;0.80;;;8.90;99.90;;;;;;4960939;28;20545;-88
2023/04/24 12:06:10;;;;;;;5.80;0.90;;;10.50;99.90;;;;;;4963764;28;20055;-86
2023/04/24 12:08:39;;;;;;;2.63;0.60;;;8.80;99.90;;;;;;4943248;29;20051;-86
2023/04/24 12:11:07;;;;;;;6.75;0.90;;;8.90;99.90;;;;;;4956630;28;20051;-87
2023/04/24 12:13:34;;;;;;;6.05;1.73;;;8.90;99.90;;;;;;4962018;28;20053;-88
2023/04/24 12:16:02;;;;;;;4.50;1.23;;;9.60;99.90;;;;;;4960269;28;20051;-86
2023/04/24 12:18:40;;;;;;;6.18;1.35;;;8.90;99.90;;;;;;4964431;28;20059;-87
2023/04/24 12:21:20;;;;;;;3.45;1.02;;;9.30;99.90;;;;;;4985168;28;20111;-84
2023/04/24 12:23:47;;;;;;;1.80;0.45;;;9.50;99.90;;;;;;4940341;29;20086;-85
2023/04/24 12:26:17;;;;;;;5.10;0.50;;;9.30;99.90;;;;;;4959013;28;20409;-88
2023/04/24 12:28:46;;;;;;;5.43;0.60;;;9.10;99.90;;;;;;4965248;28;20402;-86
2023/04/24 12:31:11;;;;;;;3.78;0.70;;;11.60;99.90;;;;;;4961018;28;20502;-82
2023/04/24 12:33:38;;;;;;;4.05;0.40;;;11.70;99.90;;;;;;4925707;29;20090;-83
2023/04/24 12:36:05;;;;;;;1.95;0.35;;;11.60;99.90;;;;;;4957013;28;20066;-83
2023/04/24 12:38:31;;;;;;;3.15;0.43;;;9.00;99.90;;;;;;4944279;28;20479;-83
2023/04/24 12:41:09;;;;;;;2.53;0.60;;;9.10;99.90;;;;;;4962922;28;20138;-82
2023/04/24 12:43:35;;;;;;;5.75;1.67;;;11.40;99.90;;;;;;4976594;28;20050;-82
2023/04/24 12:46:01;;;;;;;4.07;0.80;;;9.10;99.90;;;;;;4929066;29;20526;-82
2023/04/24 12:48:28;;;;;;;5.15;1.45;;;9.20;99.90;;;;;;4947866;28;20047;-82